This is the latest recevied weather packets stored in our database for station/object SQ5BUJ-13. If no packets are shown the sender has not sent any weather packets the latest 10 day(s).
| Time | Temp. | Humidity | Pressure | Rain* | Wind** | Luminosity | Snow |
|---|---|---|---|---|---|---|---|
| 1778110891 | 17.78° C | 61% | 1006 hPa | - | - | - | - |
| 1778109276 | 18.33° C | 59% | 1006.1 hPa | - | - | - | - |
| 1778105939 | 18.33° C | 59% | 1006.1 hPa | - | - | - | - |
| 1778102740 | 18.33° C | 58% | 1005.8 hPa | - | - | - | - |
| 1778101216 | 18.33° C | 58% | 1006.1 hPa | - | - | - | - |
| 1778099568 | 18.33° C | 58% | 1006.1 hPa | - | - | - | - |
| 1778097947 | 19.44° C | 54% | 1005.8 hPa | - | - | - | - |
| 1778096281 | 19.44° C | 54% | 1005.8 hPa | - | - | - | - |
| 1778094711 | 21.67° C | 46% | 1005.3 hPa | - | - | - | - |
| 1778093186 | 21.67° C | 46% | 1005.3 hPa | - | - | - | - |
| 1778091555 | 21.67° C | 46% | 1005.3 hPa | - | - | - | - |
| 1778089881 | 22.78° C | 41% | 1004.9 hPa | - | - | - | - |
| 1778088320 | 22.78° C | 41% | 1004.9 hPa | - | - | - | - |
| 1778086718 | 24.44° C | 36% | 1004.8 hPa | - | - | - | - |
| 1778085065 | 24.44° C | 36% | 1004.8 hPa | - | - | - | - |
| 1778083383 | 23.89° C | 37% | 1005.1 hPa | - | - | - | - |
| 1778081809 | 23.89° C | 37% | 1005.1 hPa | - | - | - | - |
| 1778080109 | 24.44° C | 37% | 1005 hPa | - | - | - | - |
| 1778078451 | 24.44° C | 37% | 1005 hPa | - | - | - | - |
| 1778076758 | 23.89° C | 38% | 1004.9 hPa | - | - | - | - |
| 1778075106 | 23.89° C | 38% | 1004.9 hPa | - | - | - | - |
| 1778071808 | 23.33° C | 38% | 1005 hPa | - | - | - | - |
| 1778070333 | 23.33° C | 38% | 1005 hPa | - | - | - | - |
| 1778068701 | 24.44° C | 37% | 1004.9 hPa | - | - | - | - |
| 1778066968 | 24.44° C | 37% | 1004.9 hPa | - | - | - | - |
* Rain since midnight (hover to see other rain measurements)
** Current wind speed in m/s (hover to see current wind gust speed)